createdAt,value
2022-09-21T00:00:51.000Z,96.86
2022-09-21T00:01:51.000Z,97.01
2022-09-21T00:02:51.000Z,97.01
2022-09-21T00:03:51.000Z,97.01
2022-09-21T00:04:51.000Z,97.01
2022-09-21T00:05:51.000Z,97.01
2022-09-21T00:06:51.000Z,97.21
2022-09-21T00:07:51.000Z,97.42
2022-09-21T00:08:52.000Z,97.31
2022-09-21T00:09:52.000Z,97.56
2022-09-21T00:10:52.000Z,97.88
2022-09-21T00:11:52.000Z,98.29
2022-09-21T00:12:52.000Z,98.70
2022-09-21T00:13:52.000Z,98.91
2022-09-21T00:14:52.000Z,98.50
2022-09-21T00:15:52.000Z,98.60
2022-09-21T00:16:52.000Z,99.01
2022-09-21T00:17:52.000Z,99.32
2022-09-21T00:18:52.000Z,99.52
2022-09-21T00:19:52.000Z,99.73
2022-09-21T00:20:52.000Z,99.63
2022-09-21T00:21:52.000Z,99.63
2022-09-21T00:22:52.000Z,99.52
2022-09-21T00:23:52.000Z,99.43
2022-09-21T00:24:52.000Z,99.63
2022-09-21T00:25:52.000Z,99.63
2022-09-21T00:26:53.000Z,99.32
2022-09-21T00:27:53.000Z,99.26
2022-09-21T00:28:53.000Z,99.43
2022-09-21T00:29:53.000Z,99.88
2022-09-21T00:30:53.000Z,99.99
2022-09-21T00:31:53.000Z,99.99
2022-09-21T00:32:53.000Z,99.99
2022-09-21T00:33:53.000Z,99.99
2022-09-21T00:34:53.000Z,99.99
2022-09-21T00:35:53.000Z,99.99
2022-09-21T00:36:53.000Z,99.99
2022-09-21T00:37:53.000Z,99.99
2022-09-21T00:38:53.000Z,99.99
2022-09-21T00:39:53.000Z,99.99
2022-09-21T00:40:53.000Z,99.99
2022-09-21T00:41:53.000Z,99.99
2022-09-21T00:42:54.000Z,99.99
2022-09-21T00:43:54.000Z,99.99
2022-09-21T00:44:54.000Z,99.99
2022-09-21T00:45:54.000Z,99.99
2022-09-21T00:46:54.000Z,99.99
2022-09-21T00:47:54.000Z,99.99
2022-09-21T00:48:54.000Z,99.99
2022-09-21T00:49:54.000Z,99.99
2022-09-21T00:50:54.000Z,99.99
2022-09-21T00:51:54.000Z,99.99
2022-09-21T00:52:54.000Z,99.99
2022-09-21T00:53:54.000Z,99.99
2022-09-21T00:54:54.000Z,99.99
2022-09-21T00:55:54.000Z,99.99
2022-09-21T00:56:54.000Z,99.99
2022-09-21T00:57:55.000Z,99.99
2022-09-21T00:58:55.000Z,99.99
2022-09-21T00:59:55.000Z,99.99
2022-09-21T01:00:55.000Z,99.99
2022-09-21T01:01:55.000Z,99.99
2022-09-21T01:02:55.000Z,99.99
2022-09-21T01:03:55.000Z,99.99
2022-09-21T01:04:55.000Z,99.99
2022-09-21T01:05:55.000Z,99.99
2022-09-21T01:06:55.000Z,99.99
2022-09-21T01:07:55.000Z,99.99
2022-09-21T01:08:55.000Z,99.99
2022-09-21T01:09:55.000Z,99.99
2022-09-21T01:10:55.000Z,99.99
2022-09-21T01:11:55.000Z,99.99
2022-09-21T01:12:55.000Z,99.99
2022-09-21T01:13:56.000Z,99.99
2022-09-21T01:14:56.000Z,99.99
2022-09-21T01:15:56.000Z,99.99
2022-09-21T01:16:56.000Z,99.99
2022-09-21T01:17:56.000Z,99.99
2022-09-21T01:18:56.000Z,99.99
2022-09-21T01:19:56.000Z,99.99
2022-09-21T01:20:56.000Z,99.99
2022-09-21T01:21:56.000Z,99.99
2022-09-21T01:22:56.000Z,99.99
2022-09-21T01:23:56.000Z,99.99
2022-09-21T01:24:56.000Z,99.99
2022-09-21T01:25:56.000Z,99.99
2022-09-21T01:26:56.000Z,99.99
2022-09-21T01:27:57.000Z,99.99
2022-09-21T01:28:57.000Z,99.99
2022-09-21T01:29:57.000Z,99.99
2022-09-21T01:30:57.000Z,99.99
2022-09-21T01:31:57.000Z,99.99
2022-09-21T01:32:57.000Z,99.99
2022-09-21T01:33:57.000Z,99.99
2022-09-21T01:34:57.000Z,99.99
2022-09-21T01:35:57.000Z,99.99
2022-09-21T01:36:57.000Z,99.99
2022-09-21T01:37:57.000Z,99.99
2022-09-21T01:38:57.000Z,99.99
2022-09-21T01:39:57.000Z,99.99
2022-09-21T01:40:57.000Z,99.99
2022-09-21T01:41:58.000Z,99.99
2022-09-21T01:42:58.000Z,99.99
2022-09-21T01:43:58.000Z,99.99
2022-09-21T01:44:58.000Z,99.99
2022-09-21T01:45:58.000Z,99.99
2022-09-21T01:46:58.000Z,99.99
2022-09-21T01:47:58.000Z,99.99
2022-09-21T01:48:58.000Z,99.99
2022-09-21T01:49:58.000Z,99.99
2022-09-21T01:50:58.000Z,99.99
2022-09-21T01:51:58.000Z,99.99
2022-09-21T01:52:58.000Z,99.99
2022-09-21T01:53:58.000Z,99.99
2022-09-21T01:54:58.000Z,99.99
2022-09-21T01:55:58.000Z,99.99
2022-09-21T01:56:59.000Z,99.99
2022-09-21T01:57:59.000Z,99.99
2022-09-21T01:58:59.000Z,99.99
2022-09-21T01:59:59.000Z,99.99
2022-09-21T02:00:59.000Z,99.99
2022-09-21T02:01:59.000Z,99.99
2022-09-21T02:02:59.000Z,99.99
2022-09-21T02:03:59.000Z,99.99
2022-09-21T02:04:59.000Z,99.99
2022-09-21T02:05:59.000Z,99.99
2022-09-21T02:06:59.000Z,99.99
2022-09-21T02:07:59.000Z,99.99
2022-09-21T02:08:59.000Z,99.99
2022-09-21T02:09:59.000Z,99.99
2022-09-21T02:11:00.000Z,99.99
2022-09-21T02:12:00.000Z,99.99
2022-09-21T02:13:00.000Z,99.99
2022-09-21T02:14:00.000Z,99.99
2022-09-21T02:15:00.000Z,99.99
2022-09-21T02:16:00.000Z,99.99
2022-09-21T02:17:00.000Z,99.99
2022-09-21T02:18:00.000Z,99.99
2022-09-21T02:19:00.000Z,99.99
2022-09-21T02:20:00.000Z,99.99
2022-09-21T02:21:00.000Z,99.99
2022-09-21T02:22:00.000Z,99.99
2022-09-21T02:23:00.000Z,99.99
2022-09-21T02:24:00.000Z,99.99
2022-09-21T02:25:00.000Z,99.99
2022-09-21T02:26:01.000Z,99.99
2022-09-21T02:27:01.000Z,99.99
2022-09-21T02:28:01.000Z,99.99
2022-09-21T02:29:01.000Z,99.99
2022-09-21T02:30:01.000Z,99.99
2022-09-21T02:31:01.000Z,99.99
2022-09-21T02:32:01.000Z,99.99
2022-09-21T02:33:01.000Z,99.99
2022-09-21T02:34:01.000Z,99.99
2022-09-21T02:35:01.000Z,99.99
2022-09-21T02:36:01.000Z,99.99
2022-09-21T02:37:01.000Z,99.99
2022-09-21T02:38:01.000Z,99.99
2022-09-21T02:39:02.000Z,99.99
2022-09-21T02:40:02.000Z,99.99
2022-09-21T02:41:02.000Z,99.99
2022-09-21T02:42:02.000Z,99.99
2022-09-21T02:43:02.000Z,99.99
2022-09-21T02:44:02.000Z,99.99
2022-09-21T02:45:02.000Z,99.99
2022-09-21T02:46:02.000Z,99.99
2022-09-21T02:47:02.000Z,99.99
2022-09-21T02:48:02.000Z,99.99
2022-09-21T02:49:02.000Z,99.99
2022-09-21T02:50:02.000Z,99.99
2022-09-21T02:51:03.000Z,99.99
2022-09-21T02:52:03.000Z,99.99
2022-09-21T02:53:03.000Z,99.99
2022-09-21T02:54:03.000Z,99.99
2022-09-21T02:55:03.000Z,99.99
2022-09-21T02:56:03.000Z,99.99
2022-09-21T02:57:03.000Z,99.99
2022-09-21T02:58:03.000Z,99.99
2022-09-21T02:59:03.000Z,99.99
2022-09-21T03:00:03.000Z,99.99
2022-09-21T03:01:03.000Z,99.99
2022-09-21T03:02:03.000Z,99.99
2022-09-21T03:03:04.000Z,99.99
2022-09-21T03:04:04.000Z,99.99
2022-09-21T03:05:04.000Z,99.99
2022-09-21T03:06:04.000Z,99.99
2022-09-21T03:07:04.000Z,99.99
2022-09-21T03:08:04.000Z,99.99
2022-09-21T03:09:04.000Z,99.99
2022-09-21T03:10:04.000Z,99.99
2022-09-21T03:11:04.000Z,99.99
2022-09-21T03:12:04.000Z,99.99
2022-09-21T03:13:04.000Z,99.99
2022-09-21T03:14:04.000Z,99.99
2022-09-21T03:15:04.000Z,99.99
2022-09-21T03:16:05.000Z,99.99
2022-09-21T03:17:05.000Z,99.99
2022-09-21T03:18:05.000Z,99.99
2022-09-21T03:19:05.000Z,99.99
2022-09-21T03:20:05.000Z,99.99
2022-09-21T03:21:05.000Z,99.99
2022-09-21T03:22:05.000Z,99.99
2022-09-21T03:23:05.000Z,99.99
2022-09-21T03:24:05.000Z,99.99
2022-09-21T03:25:05.000Z,99.99
2022-09-21T03:26:05.000Z,99.99
2022-09-21T03:27:05.000Z,99.99
2022-09-21T03:28:05.000Z,99.99
2022-09-21T03:29:05.000Z,99.99
2022-09-21T03:30:06.000Z,99.99
2022-09-21T03:31:06.000Z,99.99
2022-09-21T03:32:06.000Z,99.99
2022-09-21T03:33:06.000Z,99.99
2022-09-21T03:34:06.000Z,99.99
2022-09-21T03:35:06.000Z,99.99
2022-09-21T03:36:06.000Z,99.99
2022-09-21T03:37:06.000Z,99.99
2022-09-21T03:38:06.000Z,99.99
2022-09-21T03:39:06.000Z,99.99
2022-09-21T03:40:06.000Z,99.99
2022-09-21T03:41:06.000Z,99.99
2022-09-21T03:42:06.000Z,99.99
2022-09-21T03:43:07.000Z,99.99
2022-09-21T03:44:07.000Z,99.99
2022-09-21T03:45:07.000Z,99.99
2022-09-21T03:46:07.000Z,99.99
2022-09-21T03:47:07.000Z,99.99
2022-09-21T03:48:07.000Z,99.99
2022-09-21T03:49:07.000Z,99.99
2022-09-21T03:50:07.000Z,99.99
2022-09-21T03:51:07.000Z,99.99
2022-09-21T03:52:07.000Z,99.99
2022-09-21T03:53:07.000Z,99.99
2022-09-21T03:54:07.000Z,99.99
2022-09-21T03:55:07.000Z,99.99
2022-09-21T03:56:08.000Z,99.99
2022-09-21T03:57:08.000Z,99.99
2022-09-21T03:58:08.000Z,99.99
2022-09-21T03:59:08.000Z,99.99
2022-09-21T04:00:08.000Z,99.99
2022-09-21T04:01:08.000Z,99.99
2022-09-21T04:02:08.000Z,99.99
2022-09-21T04:03:08.000Z,99.99
2022-09-21T04:04:08.000Z,99.99
2022-09-21T04:05:08.000Z,99.99
2022-09-21T04:06:08.000Z,99.99
2022-09-21T04:07:08.000Z,99.99
2022-09-21T04:08:08.000Z,99.99
2022-09-21T04:09:09.000Z,99.99
2022-09-21T04:10:09.000Z,99.99
2022-09-21T04:11:09.000Z,99.99
2022-09-21T04:12:09.000Z,99.99
2022-09-21T04:13:09.000Z,99.99
2022-09-21T04:14:09.000Z,99.99
2022-09-21T04:15:09.000Z,99.99
2022-09-21T04:16:09.000Z,99.99
2022-09-21T04:17:09.000Z,99.99
2022-09-21T04:18:09.000Z,99.99
2022-09-21T04:19:09.000Z,99.99
2022-09-21T04:20:09.000Z,99.99
2022-09-21T04:21:10.000Z,99.99
2022-09-21T04:22:10.000Z,99.99
2022-09-21T04:23:10.000Z,99.99
2022-09-21T04:24:10.000Z,99.99
2022-09-21T04:25:10.000Z,99.99
2022-09-21T04:26:10.000Z,99.99
2022-09-21T04:27:10.000Z,99.99
2022-09-21T04:28:10.000Z,99.99
2022-09-21T04:29:10.000Z,99.99
2022-09-21T04:30:10.000Z,99.99
2022-09-21T04:31:10.000Z,99.99
2022-09-21T04:32:10.000Z,99.99
2022-09-21T04:33:11.000Z,99.99
2022-09-21T04:34:11.000Z,99.99
2022-09-21T04:35:11.000Z,99.99
2022-09-21T04:42:29.000Z,99.99
2022-09-21T04:42:29.000Z,99.99
2022-09-21T04:43:29.000Z,99.99
2022-09-21T04:44:29.000Z,99.99
2022-09-21T04:45:29.000Z,99.99
2022-09-21T04:46:29.000Z,99.99
2022-09-21T04:47:29.000Z,99.99
2022-09-21T04:48:29.000Z,99.99
2022-09-21T04:49:29.000Z,99.99
2022-09-21T04:50:29.000Z,99.99
2022-09-21T04:51:29.000Z,99.99
2022-09-21T04:52:29.000Z,99.99
2022-09-21T04:53:29.000Z,99.99
2022-09-21T04:54:29.000Z,99.99
2022-09-21T04:55:29.000Z,99.99
2022-09-21T04:56:29.000Z,99.99
2022-09-21T04:57:29.000Z,99.99
2022-09-21T04:58:29.000Z,99.99
2022-09-21T04:59:29.000Z,99.99
2022-09-21T05:00:29.000Z,99.99
2022-09-21T05:01:29.000Z,99.99
2022-09-21T05:02:29.000Z,99.99
2022-09-21T05:03:29.000Z,99.99
2022-09-21T05:04:29.000Z,99.99
2022-09-21T05:05:29.000Z,99.99
2022-09-21T05:06:29.000Z,99.99
2022-09-21T05:07:29.000Z,99.99
2022-09-21T05:08:29.000Z,99.99
2022-09-21T05:09:29.000Z,99.99
2022-09-21T05:10:29.000Z,99.99
2022-09-21T05:11:29.000Z,99.99
2022-09-21T05:12:29.000Z,99.99
2022-09-21T05:13:29.000Z,99.99
2022-09-21T05:14:29.000Z,99.99
2022-09-21T05:15:29.000Z,99.99
2022-09-21T05:16:29.000Z,99.99
2022-09-21T05:17:29.000Z,99.99
2022-09-21T05:18:29.000Z,99.99
2022-09-21T05:19:29.000Z,99.99
2022-09-21T05:20:29.000Z,99.99
2022-09-21T05:21:29.000Z,99.99
2022-09-21T05:22:29.000Z,99.99
2022-09-21T05:23:29.000Z,99.99
2022-09-21T05:24:29.000Z,99.99
2022-09-21T05:25:29.000Z,99.99
2022-09-21T05:26:29.000Z,99.99
2022-09-21T05:27:29.000Z,99.99
2022-09-21T05:28:29.000Z,99.99
2022-09-21T05:29:29.000Z,99.99
2022-09-21T05:30:29.000Z,99.99
2022-09-21T05:31:29.000Z,99.99
2022-09-21T05:32:29.000Z,99.99
2022-09-21T05:33:29.000Z,99.99
2022-09-21T05:34:29.000Z,99.99
2022-09-21T05:35:29.000Z,99.99
2022-09-21T05:36:29.000Z,99.99
2022-09-21T05:37:29.000Z,99.99
2022-09-21T05:38:29.000Z,99.99
2022-09-21T05:39:29.000Z,99.99
2022-09-21T05:40:29.000Z,99.99
2022-09-21T05:41:29.000Z,99.99
2022-09-21T05:42:29.000Z,99.99
2022-09-21T05:43:29.000Z,99.99
2022-09-21T05:44:29.000Z,99.99
2022-09-21T05:45:29.000Z,99.99
2022-09-21T05:46:29.000Z,99.99
2022-09-21T05:47:29.000Z,99.99
2022-09-21T05:48:29.000Z,99.99
2022-09-21T05:49:29.000Z,99.99
2022-09-21T05:50:29.000Z,99.99
2022-09-21T05:51:29.000Z,99.99
2022-09-21T05:52:29.000Z,99.99
2022-09-21T05:53:29.000Z,99.99
2022-09-21T05:54:29.000Z,99.99
2022-09-21T05:55:29.000Z,99.99
2022-09-21T05:56:29.000Z,99.99
2022-09-21T05:57:29.000Z,99.99
2022-09-21T05:58:29.000Z,99.99
2022-09-21T05:59:29.000Z,99.99
2022-09-21T06:00:29.000Z,99.99
2022-09-21T06:01:29.000Z,99.99
2022-09-21T06:02:29.000Z,99.99
2022-09-21T06:03:29.000Z,99.99
2022-09-21T06:04:29.000Z,99.99
2022-09-21T06:05:29.000Z,99.99
2022-09-21T06:06:29.000Z,99.99
2022-09-21T06:07:29.000Z,99.99
2022-09-21T06:08:29.000Z,99.99
2022-09-21T06:09:29.000Z,99.99
2022-09-21T06:10:29.000Z,99.99
2022-09-21T06:11:29.000Z,99.99
2022-09-21T06:12:29.000Z,99.99
2022-09-21T06:13:29.000Z,99.99
2022-09-21T06:14:29.000Z,99.99
2022-09-21T06:15:29.000Z,99.99
2022-09-21T06:16:29.000Z,99.99
2022-09-21T06:17:29.000Z,99.99
2022-09-21T06:18:29.000Z,99.99
2022-09-21T06:19:29.000Z,99.99
2022-09-21T06:20:29.000Z,99.99
2022-09-21T06:21:29.000Z,99.99
2022-09-21T06:22:29.000Z,99.99
2022-09-21T06:23:29.000Z,99.99
2022-09-21T06:24:29.000Z,99.99
2022-09-21T06:25:29.000Z,99.99
2022-09-21T06:26:29.000Z,99.99
2022-09-21T06:27:29.000Z,99.99
2022-09-21T06:28:29.000Z,99.99
2022-09-21T06:29:29.000Z,99.99
2022-09-21T06:30:29.000Z,99.99
2022-09-21T06:31:29.000Z,99.99
2022-09-21T06:32:29.000Z,99.99
2022-09-21T06:33:29.000Z,99.99
2022-09-21T06:34:29.000Z,99.99
2022-09-21T06:35:29.000Z,99.99
2022-09-21T06:36:29.000Z,99.99
2022-09-21T06:37:29.000Z,99.99
2022-09-21T06:38:29.000Z,99.99
2022-09-21T06:39:29.000Z,99.99
2022-09-21T06:40:29.000Z,99.99
2022-09-21T06:41:29.000Z,99.99
2022-09-21T06:42:29.000Z,99.99
2022-09-21T06:43:29.000Z,99.99
2022-09-21T06:44:29.000Z,99.99
2022-09-21T06:45:29.000Z,99.99
2022-09-21T06:46:29.000Z,99.99
2022-09-21T06:47:29.000Z,99.99
2022-09-21T06:48:29.000Z,99.99
2022-09-21T06:49:29.000Z,99.99
2022-09-21T06:50:29.000Z,99.99
2022-09-21T06:51:29.000Z,99.99
2022-09-21T06:52:29.000Z,99.99
2022-09-21T06:53:29.000Z,99.99
2022-09-21T06:54:29.000Z,99.99
2022-09-21T06:55:29.000Z,99.99
2022-09-21T06:56:36.000Z,99.99
2022-09-21T06:57:29.000Z,99.99
2022-09-21T06:58:28.000Z,99.99
2022-09-21T06:59:28.000Z,99.99
2022-09-21T07:00:28.000Z,99.99
2022-09-21T07:01:28.000Z,99.99
2022-09-21T07:02:28.000Z,99.99
2022-09-21T07:03:28.000Z,99.99
2022-09-21T07:04:28.000Z,99.99
2022-09-21T07:05:28.000Z,99.99
2022-09-21T07:06:28.000Z,99.99
2022-09-21T07:07:28.000Z,99.99
2022-09-21T07:08:28.000Z,99.99
2022-09-21T07:09:28.000Z,99.99
2022-09-21T07:10:28.000Z,99.99
2022-09-21T07:11:28.000Z,99.99
2022-09-21T07:12:28.000Z,99.99
2022-09-21T07:13:28.000Z,99.99
2022-09-21T07:14:28.000Z,99.99
2022-09-21T07:15:28.000Z,99.99
2022-09-21T07:16:28.000Z,99.99
2022-09-21T07:17:28.000Z,99.99
2022-09-21T07:18:28.000Z,99.99
2022-09-21T07:19:28.000Z,99.98
2022-09-21T07:20:28.000Z,99.57
2022-09-21T07:21:28.000Z,99.05
2022-09-21T07:22:28.000Z,99.16
2022-09-21T07:23:28.000Z,99.52
2022-09-21T07:24:28.000Z,99.42
2022-09-21T07:25:28.000Z,99.21
2022-09-21T07:26:28.000Z,99.07
2022-09-21T07:27:28.000Z,98.86
2022-09-21T07:28:28.000Z,98.76
2022-09-21T07:29:28.000Z,98.55
2022-09-21T07:30:28.000Z,98.55
2022-09-21T07:31:28.000Z,98.55
2022-09-21T07:32:28.000Z,98.45
2022-09-21T07:33:28.000Z,98.41
2022-09-21T07:34:28.000Z,98.10
2022-09-21T07:35:28.000Z,97.89
2022-09-21T07:36:28.000Z,97.69
2022-09-21T07:37:28.000Z,97.99
2022-09-21T07:38:28.000Z,97.79
2022-09-21T07:39:28.000Z,98.05
2022-09-21T07:40:28.000Z,97.95
2022-09-21T07:41:28.000Z,97.23
2022-09-21T07:42:28.000Z,96.92
2022-09-21T07:43:28.000Z,96.82
2022-09-21T07:44:28.000Z,96.72
2022-09-21T07:45:27.000Z,96.78
2022-09-21T07:46:27.000Z,96.98
2022-09-21T07:47:27.000Z,96.88
2022-09-21T07:48:27.000Z,96.57
2022-09-21T07:49:27.000Z,96.42
2022-09-21T07:50:27.000Z,96.42
2022-09-21T07:51:27.000Z,96.22
2022-09-21T07:52:27.000Z,96.53
2022-09-21T07:53:27.000Z,96.73
2022-09-21T07:54:27.000Z,95.76
2022-09-21T07:55:27.000Z,95.66
2022-09-21T07:56:27.000Z,95.25
2022-09-21T07:57:27.000Z,95.05
2022-09-21T07:58:27.000Z,94.33
2022-09-21T07:59:27.000Z,94.33
2022-09-21T08:00:27.000Z,94.59
2022-09-21T08:01:27.000Z,93.88
2022-09-21T08:02:27.000Z,93.16
2022-09-21T08:03:27.000Z,93.57
2022-09-21T08:04:27.000Z,94.59
2022-09-21T08:05:27.000Z,94.75
2022-09-21T08:06:27.000Z,93.22
2022-09-21T08:07:27.000Z,93.12
2022-09-21T08:08:27.000Z,93.22
2022-09-21T08:09:27.000Z,93.12
2022-09-21T08:10:27.000Z,92.97
2022-09-21T08:11:27.000Z,91.74
2022-09-21T08:12:27.000Z,91.64
2022-09-21T08:13:27.000Z,91.64
2022-09-21T08:14:27.000Z,91.13
2022-09-21T08:15:26.000Z,90.82
2022-09-21T08:16:26.000Z,90.31
2022-09-21T08:17:26.000Z,90.68
2022-09-21T08:18:26.000Z,89.86
2022-09-21T08:19:26.000Z,90.47
2022-09-21T08:20:26.000Z,91.39
2022-09-21T08:21:26.000Z,89.25
2022-09-21T08:22:26.000Z,88.94
2022-09-21T08:23:26.000Z,89.35
2022-09-21T08:24:26.000Z,90.43
2022-09-21T08:25:26.000Z,90.64
2022-09-21T08:26:26.000Z,89.51
2022-09-21T08:27:26.000Z,89.72
2022-09-21T08:28:26.000Z,89.82
2022-09-21T08:29:26.000Z,89.00
2022-09-21T08:30:26.000Z,88.18
2022-09-21T08:31:26.000Z,87.26
2022-09-21T08:32:26.000Z,87.47
2022-09-21T08:33:26.000Z,87.88
2022-09-21T08:34:26.000Z,88.14
2022-09-21T08:35:26.000Z,89.17
2022-09-21T08:36:26.000Z,88.24
2022-09-21T08:37:26.000Z,89.06
2022-09-21T08:38:26.000Z,89.26
2022-09-21T08:39:25.000Z,88.76
2022-09-21T08:40:25.000Z,89.06
2022-09-21T08:41:25.000Z,88.14
2022-09-21T08:42:25.000Z,87.70
2022-09-21T08:43:25.000Z,88.51
2022-09-21T08:44:25.000Z,87.90
2022-09-21T08:45:25.000Z,88.92
2022-09-21T08:46:25.000Z,88.17
2022-09-21T08:47:25.000Z,87.45
2022-09-21T08:48:25.000Z,87.55
2022-09-21T08:49:25.000Z,86.43
2022-09-21T08:50:25.000Z,86.53
2022-09-21T08:51:25.000Z,85.51
2022-09-21T08:51:25.000Z,85.51
2022-09-21T08:52:25.000Z,86.02
2022-09-21T08:52:25.000Z,86.02
2022-09-21T08:53:25.000Z,86.33
2022-09-21T08:53:25.000Z,86.33
2022-09-21T08:54:25.000Z,86.73
2022-09-21T08:54:25.000Z,86.73
2022-09-21T08:55:25.000Z,86.18
2022-09-21T08:55:25.000Z,86.18
2022-09-21T08:56:25.000Z,86.63
2022-09-21T08:57:24.000Z,87.20
2022-09-21T08:58:24.000Z,86.39
2022-09-21T08:59:24.000Z,85.88
2022-09-21T09:00:24.000Z,85.88
2022-09-21T09:01:24.000Z,85.43
2022-09-21T09:02:24.000Z,84.51
2022-09-21T09:03:24.000Z,85.33
2022-09-21T09:04:24.000Z,83.59
2022-09-21T09:05:24.000Z,85.22
2022-09-21T09:06:24.000Z,84.82
2022-09-21T09:07:24.000Z,84.31
2022-09-21T09:08:24.000Z,85.13
2022-09-21T09:09:24.000Z,85.63
2022-09-21T09:10:24.000Z,85.60
2022-09-21T09:11:24.000Z,85.49
2022-09-21T09:12:24.000Z,83.96
2022-09-21T09:13:24.000Z,84.58
2022-09-21T09:14:23.000Z,84.88
2022-09-21T09:15:23.000Z,85.08
2022-09-21T09:16:23.000Z,84.98
2022-09-21T09:17:23.000Z,84.78
2022-09-21T09:18:23.000Z,85.45
2022-09-21T09:19:23.000Z,84.43
2022-09-21T09:20:23.000Z,82.19
2022-09-21T09:21:23.000Z,83.65
2022-09-21T09:22:23.000Z,84.58
2022-09-21T09:23:23.000Z,83.01
2022-09-21T09:24:23.000Z,82.80
2022-09-21T09:25:23.000Z,82.09
2022-09-21T09:26:23.000Z,82.70
2022-09-21T09:27:23.000Z,82.90
2022-09-21T09:28:22.000Z,83.31
2022-09-21T09:29:22.000Z,82.40
2022-09-21T09:30:22.000Z,82.09
2022-09-21T09:31:22.000Z,83.17
2022-09-21T09:31:22.000Z,83.17
2022-09-21T09:32:22.000Z,82.46
2022-09-21T09:32:22.000Z,82.46
2022-09-21T09:33:22.000Z,81.04
2022-09-21T09:33:22.000Z,81.04
2022-09-21T09:34:22.000Z,80.73
2022-09-21T09:34:22.000Z,80.73
2022-09-21T09:35:22.000Z,82.26
2022-09-21T09:35:22.000Z,82.26
2022-09-21T09:36:22.000Z,83.07
2022-09-21T09:37:22.000Z,82.87
2022-09-21T09:38:22.000Z,82.93
2022-09-21T09:39:22.000Z,82.01
2022-09-21T09:40:22.000Z,82.01
2022-09-21T09:41:21.000Z,82.21
2022-09-21T09:42:21.000Z,82.01
2022-09-21T09:43:21.000Z,82.52
2022-09-21T09:44:21.000Z,82.12
2022-09-21T09:45:21.000Z,81.51
2022-09-21T09:46:21.000Z,80.99
2022-09-21T09:47:21.000Z,80.90
2022-09-21T09:48:21.000Z,82.32
2022-09-21T09:49:21.000Z,81.46
2022-09-21T09:50:21.000Z,81.67
2022-09-21T09:51:21.000Z,82.48
2022-09-21T09:52:21.000Z,81.16
2022-09-21T09:53:21.000Z,81.37
2022-09-21T09:54:20.000Z,81.16
2022-09-21T09:55:20.000Z,80.35
2022-09-21T09:56:20.000Z,81.12
2022-09-21T09:57:20.000Z,81.84
2022-09-21T09:58:20.000Z,80.31
2022-09-21T09:59:20.000Z,79.60
2022-09-21T10:00:20.000Z,80.51
2022-09-21T10:01:20.000Z,81.12
2022-09-21T10:02:20.000Z,80.11
2022-09-21T10:03:20.000Z,80.17
2022-09-21T10:04:20.000Z,81.29
2022-09-21T10:05:20.000Z,81.79
2022-09-21T10:06:19.000Z,80.88
2022-09-21T10:07:19.000Z,80.27
2022-09-21T10:08:19.000Z,79.77
2022-09-21T10:09:19.000Z,81.05
2022-09-21T10:10:19.000Z,81.56
2022-09-21T10:11:19.000Z,80.74
2022-09-21T10:12:19.000Z,79.12
2022-09-21T10:13:19.000Z,79.93
2022-09-21T10:14:19.000Z,78.91
2022-09-21T10:15:19.000Z,78.10
2022-09-21T10:16:19.000Z,77.90
2022-09-21T10:17:19.000Z,79.22
2022-09-21T10:18:18.000Z,79.12
2022-09-21T10:19:18.000Z,78.61
2022-09-21T10:20:18.000Z,79.32
2022-09-21T10:21:18.000Z,79.42
2022-09-21T10:22:18.000Z,79.83
2022-09-21T10:23:18.000Z,80.33
2022-09-21T10:24:18.000Z,80.13
2022-09-21T10:25:18.000Z,78.30
2022-09-21T10:26:18.000Z,78.30
2022-09-21T10:27:18.000Z,79.52
2022-09-21T10:28:18.000Z,78.67
2022-09-21T10:29:18.000Z,78.06
2022-09-21T10:30:18.000Z,79.18
2022-09-21T10:31:17.000Z,79.99
2022-09-21T10:32:17.000Z,77.76
2022-09-21T10:33:17.000Z,77.97
2022-09-21T10:34:17.000Z,78.78
2022-09-21T10:35:17.000Z,78.57
2022-09-21T10:36:17.000Z,80.10
2022-09-21T10:37:17.000Z,77.93
2022-09-21T10:38:17.000Z,78.03
2022-09-21T10:39:17.000Z,73.77
2022-09-21T10:40:17.000Z,74.68
2022-09-21T10:41:17.000Z,74.68
2022-09-21T10:42:17.000Z,76.31
2022-09-21T10:43:16.000Z,78.09
2022-09-21T10:44:16.000Z,76.27
2022-09-21T10:45:16.000Z,75.35
2022-09-21T10:46:16.000Z,75.66
2022-09-21T10:47:16.000Z,75.25
2022-09-21T10:48:16.000Z,76.67
2022-09-21T10:49:16.000Z,73.12
2022-09-21T10:50:16.000Z,73.83
2022-09-21T10:51:16.000Z,74.44
2022-09-21T10:52:16.000Z,75.19
2022-09-21T10:53:16.000Z,75.29
2022-09-21T10:54:15.000Z,74.68
2022-09-21T10:55:15.000Z,76.20
2022-09-21T10:56:15.000Z,76.10
2022-09-21T10:57:15.000Z,77.59
2022-09-21T10:58:15.000Z,76.06
2022-09-21T10:59:15.000Z,74.65
2022-09-21T11:00:15.000Z,74.54
2022-09-21T11:01:15.000Z,74.65
2022-09-21T11:02:15.000Z,73.53
2022-09-21T11:03:15.000Z,74.24
2022-09-21T11:04:15.000Z,73.22
2022-09-21T11:05:15.000Z,73.33
2022-09-21T11:06:14.000Z,73.02
2022-09-21T11:07:14.000Z,73.12
2022-09-21T11:08:14.000Z,73.93
2022-09-21T11:09:14.000Z,76.37
2022-09-21T11:10:14.000Z,73.73
2022-09-21T11:11:14.000Z,70.45
2022-09-21T11:12:14.000Z,69.95
2022-09-21T11:13:14.000Z,69.95
2022-09-21T11:14:14.000Z,72.21
2022-09-21T11:15:14.000Z,73.83
2022-09-21T11:16:14.000Z,74.10
2022-09-21T11:17:13.000Z,72.78
2022-09-21T11:18:13.000Z,72.89
2022-09-21T11:19:13.000Z,70.35
2022-09-21T11:20:13.000Z,70.15
2022-09-21T11:21:13.000Z,72.28
2022-09-21T11:22:13.000Z,72.38
2022-09-21T11:23:13.000Z,69.44
2022-09-21T11:24:13.000Z,69.03
2022-09-21T11:25:13.000Z,68.93
2022-09-21T11:26:13.000Z,71.47
2022-09-21T11:27:13.000Z,70.35
2022-09-21T11:28:13.000Z,70.25
2022-09-21T11:29:12.000Z,69.10
2022-09-21T11:30:12.000Z,70.52
2022-09-21T11:31:12.000Z,69.61
2022-09-21T11:32:12.000Z,69.81
2022-09-21T11:33:12.000Z,67.89
2022-09-21T11:34:12.000Z,67.28
2022-09-21T11:35:12.000Z,68.40
2022-09-21T11:36:12.000Z,67.68
2022-09-21T11:37:12.000Z,68.36
2022-09-21T11:38:12.000Z,68.16
2022-09-21T11:39:12.000Z,70.59
2022-09-21T11:40:11.000Z,66.30
2022-09-21T11:41:11.000Z,65.59
2022-09-21T11:42:11.000Z,67.11
2022-09-21T11:43:11.000Z,68.73
2022-09-21T11:44:11.000Z,65.80
2022-09-21T11:45:11.000Z,64.38
2022-09-21T11:46:11.000Z,64.79
2022-09-21T11:47:11.000Z,64.41
2022-09-21T11:48:11.000Z,64.21
2022-09-21T11:49:11.000Z,66.74
2022-09-21T11:50:11.000Z,69.04
2022-09-21T11:51:10.000Z,66.10
2022-09-21T11:52:10.000Z,65.09
2022-09-21T11:53:10.000Z,68.02
2022-09-21T11:54:10.000Z,66.71
2022-09-21T11:55:10.000Z,66.91
2022-09-21T11:56:10.000Z,64.18
2022-09-21T11:57:10.000Z,68.33
2022-09-21T11:58:10.000Z,67.62
2022-09-21T11:59:10.000Z,65.29
2022-09-21T12:00:10.000Z,63.98
2022-09-21T12:01:10.000Z,64.07
2022-09-21T12:02:09.000Z,65.93
2022-09-21T12:03:09.000Z,64.21
2022-09-21T12:04:09.000Z,62.69
2022-09-21T12:05:09.000Z,64.85
2022-09-21T12:06:09.000Z,61.91
2022-09-21T12:07:09.000Z,62.99
2022-09-21T12:08:09.000Z,64.72
2022-09-21T12:09:09.000Z,64.92
2022-09-21T12:10:09.000Z,65.62
2022-09-21T12:11:09.000Z,65.83
2022-09-21T12:12:09.000Z,64.38
2022-09-21T12:13:08.000Z,64.99
2022-09-21T12:14:08.000Z,65.80
2022-09-21T12:15:08.000Z,66.10
2022-09-21T12:16:08.000Z,65.32
2022-09-21T12:17:08.000Z,65.93
2022-09-21T12:18:08.000Z,64.92
2022-09-21T12:19:08.000Z,65.83
2022-09-21T12:20:08.000Z,67.65
2022-09-21T12:21:08.000Z,67.05
2022-09-21T12:22:07.000Z,65.29
2022-09-21T12:23:07.000Z,64.99
2022-09-21T12:24:07.000Z,62.96
2022-09-21T12:25:07.000Z,63.57
2022-09-21T12:26:07.000Z,63.13
2022-09-21T12:27:07.000Z,61.72
2022-09-21T12:28:07.000Z,62.63
2022-09-21T12:29:07.000Z,62.53
2022-09-21T12:30:07.000Z,64.22
2022-09-21T12:31:07.000Z,62.70
2022-09-21T12:32:06.000Z,64.42
2022-09-21T12:33:06.000Z,61.19
2022-09-21T12:34:06.000Z,61.19
2022-09-21T12:35:06.000Z,63.89
2022-09-21T12:36:06.000Z,63.48
2022-09-21T12:37:06.000Z,64.90
2022-09-21T12:38:06.000Z,64.29
2022-09-21T12:39:06.000Z,63.78
2022-09-21T12:40:06.000Z,65.30
2022-09-21T12:41:06.000Z,65.67
2022-09-21T12:42:05.000Z,68.80
2022-09-21T12:43:05.000Z,66.65
2022-09-21T12:44:05.000Z,66.05
2022-09-21T12:45:05.000Z,67.06
2022-09-21T12:46:05.000Z,67.46
2022-09-21T12:47:05.000Z,67.66
2022-09-21T12:48:05.000Z,68.37